sensor_id;sensor_type;location;lat;lon;timestamp;P1;durP1;ratioP1;P2;durP2;ratioP2
21862;SDS011;11096;51.338;12.524;2023-08-08T00:00:46;7.45;;;2.95;;
21862;SDS011;11096;51.338;12.524;2023-08-08T00:03:12;5.40;;;2.58;;
21862;SDS011;11096;51.338;12.524;2023-08-08T00:05:38;13.38;;;2.80;;
21862;SDS011;11096;51.338;12.524;2023-08-08T00:08:03;7.20;;;2.72;;
21862;SDS011;11096;51.338;12.524;2023-08-08T00:10:29;7.95;;;2.70;;
21862;SDS011;11096;51.338;12.524;2023-08-08T00:12:54;6.60;;;2.42;;
21862;SDS011;11096;51.338;12.524;2023-08-08T00:15:20;5.13;;;2.22;;
21862;SDS011;11096;51.338;12.524;2023-08-08T00:17:45;5.00;;;2.67;;
21862;SDS011;11096;51.338;12.524;2023-08-08T00:20:11;5.95;;;2.20;;
21862;SDS011;11096;51.338;12.524;2023-08-08T00:22:36;11.27;;;2.50;;
21862;SDS011;11096;51.338;12.524;2023-08-08T00:25:02;4.93;;;2.83;;
21862;SDS011;11096;51.338;12.524;2023-08-08T00:27:27;5.60;;;3.03;;
21862;SDS011;11096;51.338;12.524;2023-08-08T00:29:53;7.90;;;2.60;;
21862;SDS011;11096;51.338;12.524;2023-08-08T00:32:19;5.72;;;2.40;;
21862;SDS011;11096;51.338;12.524;2023-08-08T00:34:45;8.98;;;2.88;;
21862;SDS011;11096;51.338;12.524;2023-08-08T00:37:10;8.32;;;3.50;;
21862;SDS011;11096;51.338;12.524;2023-08-08T00:39:36;5.28;;;2.30;;
21862;SDS011;11096;51.338;12.524;2023-08-08T00:42:01;8.40;;;3.35;;
21862;SDS011;11096;51.338;12.524;2023-08-08T00:44:27;6.72;;;2.67;;
21862;SDS011;11096;51.338;12.524;2023-08-08T00:46:53;5.53;;;2.55;;
21862;SDS011;11096;51.338;12.524;2023-08-08T00:49:18;4.85;;;2.42;;
21862;SDS011;11096;51.338;12.524;2023-08-08T00:51:44;8.32;;;2.85;;
21862;SDS011;11096;51.338;12.524;2023-08-08T00:54:10;4.35;;;2.85;;
21862;SDS011;11096;51.338;12.524;2023-08-08T00:56:36;9.07;;;2.40;;
21862;SDS011;11096;51.338;12.524;2023-08-08T00:59:02;9.85;;;2.58;;
21862;SDS011;11096;51.338;12.524;2023-08-08T01:01:27;9.48;;;3.00;;
21862;SDS011;11096;51.338;12.524;2023-08-08T01:03:53;8.02;;;2.90;;
21862;SDS011;11096;51.338;12.524;2023-08-08T01:09:09;6.03;;;2.60;;
21862;SDS011;11096;51.338;12.524;2023-08-08T01:11:44;7.13;;;2.90;;
21862;SDS011;11096;51.338;12.524;2023-08-08T01:14:13;6.70;;;2.67;;
21862;SDS011;11096;51.338;12.524;2023-08-08T01:16:40;7.80;;;2.30;;
21862;SDS011;11096;51.338;12.524;2023-08-08T01:19:07;5.82;;;2.22;;
21862;SDS011;11096;51.338;12.524;2023-08-08T01:21:36;5.75;;;2.38;;
21862;SDS011;11096;51.338;12.524;2023-08-08T01:24:12;6.95;;;2.45;;
21862;SDS011;11096;51.338;12.524;2023-08-08T01:26:43;7.05;;;2.53;;
21862;SDS011;11096;51.338;12.524;2023-08-08T01:29:08;5.05;;;3.28;;
21862;SDS011;11096;51.338;12.524;2023-08-08T01:31:34;7.47;;;2.83;;
21862;SDS011;11096;51.338;12.524;2023-08-08T01:33:59;5.85;;;2.67;;
21862;SDS011;11096;51.338;12.524;2023-08-08T01:36:27;3.75;;;2.20;;
21862;SDS011;11096;51.338;12.524;2023-08-08T01:38:58;3.00;;;2.00;;
21862;SDS011;11096;51.338;12.524;2023-08-08T01:41:30;4.78;;;2.40;;
21862;SDS011;11096;51.338;12.524;2023-08-08T01:43:58;4.57;;;2.10;;
21862;SDS011;11096;51.338;12.524;2023-08-08T01:46:24;4.32;;;2.63;;
21862;SDS011;11096;51.338;12.524;2023-08-08T01:48:50;6.85;;;2.85;;
21862;SDS011;11096;51.338;12.524;2023-08-08T01:51:15;8.65;;;2.88;;
21862;SDS011;11096;51.338;12.524;2023-08-08T01:53:41;8.65;;;2.33;;
21862;SDS011;11096;51.338;12.524;2023-08-08T01:56:06;6.78;;;2.70;;
21862;SDS011;11096;51.338;12.524;2023-08-08T01:58:32;5.75;;;2.35;;
21862;SDS011;11096;51.338;12.524;2023-08-08T02:00:57;4.72;;;2.28;;
21862;SDS011;11096;51.338;12.524;2023-08-08T02:03:23;6.78;;;2.97;;
21862;SDS011;11096;51.338;12.524;2023-08-08T02:05:48;5.90;;;2.42;;
21862;SDS011;11096;51.338;12.524;2023-08-08T02:08:14;6.97;;;2.30;;
21862;SDS011;11096;51.338;12.524;2023-08-08T02:10:39;7.00;;;2.20;;
21862;SDS011;11096;51.338;12.524;2023-08-08T02:13:05;7.63;;;2.67;;
21862;SDS011;11096;51.338;12.524;2023-08-08T02:15:30;9.48;;;3.05;;
21862;SDS011;11096;51.338;12.524;2023-08-08T02:17:55;4.85;;;2.60;;
21862;SDS011;11096;51.338;12.524;2023-08-08T02:20:21;5.65;;;2.50;;
21862;SDS011;11096;51.338;12.524;2023-08-08T02:22:46;3.75;;;2.15;;
21862;SDS011;11096;51.338;12.524;2023-08-08T02:25:12;7.05;;;2.72;;
21862;SDS011;11096;51.338;12.524;2023-08-08T02:27:37;3.72;;;2.47;;
21862;SDS011;11096;51.338;12.524;2023-08-08T02:30:03;6.82;;;2.67;;
21862;SDS011;11096;51.338;12.524;2023-08-08T02:32:29;7.95;;;2.40;;
21862;SDS011;11096;51.338;12.524;2023-08-08T02:34:54;5.13;;;2.30;;
21862;SDS011;11096;51.338;12.524;2023-08-08T02:37:19;3.67;;;2.30;;
21862;SDS011;11096;51.338;12.524;2023-08-08T02:39:45;5.43;;;2.40;;
21862;SDS011;11096;51.338;12.524;2023-08-08T02:42:10;5.00;;;2.20;;
21862;SDS011;11096;51.338;12.524;2023-08-08T02:44:36;8.43;;;3.17;;
21862;SDS011;11096;51.338;12.524;2023-08-08T02:47:01;6.72;;;2.67;;
21862;SDS011;11096;51.338;12.524;2023-08-08T02:49:26;5.93;;;2.20;;
21862;SDS011;11096;51.338;12.524;2023-08-08T02:51:52;3.70;;;2.33;;
21862;SDS011;11096;51.338;12.524;2023-08-08T02:54:17;4.65;;;2.70;;
21862;SDS011;11096;51.338;12.524;2023-08-08T02:56:43;5.15;;;2.25;;
21862;SDS011;11096;51.338;12.524;2023-08-08T02:59:08;4.65;;;2.00;;
21862;SDS011;11096;51.338;12.524;2023-08-08T03:01:34;5.43;;;2.03;;
21862;SDS011;11096;51.338;12.524;2023-08-08T03:04:04;5.07;;;2.10;;
21862;SDS011;11096;51.338;12.524;2023-08-08T03:06:30;7.45;;;2.10;;
21862;SDS011;11096;51.338;12.524;2023-08-08T03:08:55;5.22;;;2.05;;
21862;SDS011;11096;51.338;12.524;2023-08-08T03:11:21;4.07;;;2.03;;
21862;SDS011;11096;51.338;12.524;2023-08-08T03:13:46;5.32;;;2.63;;
21862;SDS011;11096;51.338;12.524;2023-08-08T03:16:12;5.40;;;2.35;;
21862;SDS011;11096;51.338;12.524;2023-08-08T03:18:37;6.90;;;2.53;;
21862;SDS011;11096;51.338;12.524;2023-08-08T03:21:02;6.57;;;2.22;;
21862;SDS011;11096;51.338;12.524;2023-08-08T03:23:28;2.83;;;1.90;;
21862;SDS011;11096;51.338;12.524;2023-08-08T03:25:53;5.35;;;2.35;;
21862;SDS011;11096;51.338;12.524;2023-08-08T03:28:19;2.92;;;2.22;;
21862;SDS011;11096;51.338;12.524;2023-08-08T03:30:44;5.90;;;2.67;;
21862;SDS011;11096;51.338;12.524;2023-08-08T03:33:10;7.50;;;2.50;;
21862;SDS011;11096;51.338;12.524;2023-08-08T03:35:35;4.13;;;2.03;;
21862;SDS011;11096;51.338;12.524;2023-08-08T03:38:00;4.20;;;2.05;;
21862;SDS011;11096;51.338;12.524;2023-08-08T03:40:27;6.60;;;2.35;;
21862;SDS011;11096;51.338;12.524;2023-08-08T03:42:53;5.93;;;2.15;;
21862;SDS011;11096;51.338;12.524;2023-08-08T03:45:18;5.30;;;2.58;;
21862;SDS011;11096;51.338;12.524;2023-08-08T03:47:43;3.55;;;1.90;;
21862;SDS011;11096;51.338;12.524;2023-08-08T03:50:09;5.03;;;2.13;;
21862;SDS011;11096;51.338;12.524;2023-08-08T03:52:35;5.25;;;2.10;;
21862;SDS011;11096;51.338;12.524;2023-08-08T03:55:02;6.53;;;2.40;;
21862;SDS011;11096;51.338;12.524;2023-08-08T03:57:29;3.22;;;2.20;;
21862;SDS011;11096;51.338;12.524;2023-08-08T03:59:55;4.78;;;2.22;;
21862;SDS011;11096;51.338;12.524;2023-08-08T04:02:20;7.28;;;2.70;;
21862;SDS011;11096;51.338;12.524;2023-08-08T04:04:45;5.85;;;2.80;;
21862;SDS011;11096;51.338;12.524;2023-08-08T04:07:11;4.75;;;2.33;;
21862;SDS011;11096;51.338;12.524;2023-08-08T04:09:36;7.38;;;2.67;;
21862;SDS011;11096;51.338;12.524;2023-08-08T04:12:02;5.65;;;2.20;;
21862;SDS011;11096;51.338;12.524;2023-08-08T04:14:28;3.55;;;2.15;;
21862;SDS011;11096;51.338;12.524;2023-08-08T04:16:53;6.43;;;2.30;;
21862;SDS011;11096;51.338;12.524;2023-08-08T04:19:19;4.30;;;2.50;;
21862;SDS011;11096;51.338;12.524;2023-08-08T04:21:44;9.05;;;2.53;;
21862;SDS011;11096;51.338;12.524;2023-08-08T04:24:10;5.78;;;2.97;;
21862;SDS011;11096;51.338;12.524;2023-08-08T04:26:37;5.95;;;2.60;;
21862;SDS011;11096;51.338;12.524;2023-08-08T04:29:02;5.53;;;2.38;;
21862;SDS011;11096;51.338;12.524;2023-08-08T04:31:28;4.13;;;2.10;;
21862;SDS011;11096;51.338;12.524;2023-08-08T04:33:54;6.65;;;2.50;;
21862;SDS011;11096;51.338;12.524;2023-08-08T04:36:24;5.38;;;2.40;;
21862;SDS011;11096;51.338;12.524;2023-08-08T04:38:50;3.63;;;2.00;;
21862;SDS011;11096;51.338;12.524;2023-08-08T04:41:16;10.18;;;2.47;;
21862;SDS011;11096;51.338;12.524;2023-08-08T04:43:41;4.35;;;1.75;;
21862;SDS011;11096;51.338;12.524;2023-08-08T04:46:06;4.97;;;2.00;;
21862;SDS011;11096;51.338;12.524;2023-08-08T04:48:32;3.63;;;1.88;;
21862;SDS011;11096;51.338;12.524;2023-08-08T04:50:57;4.35;;;2.00;;
21862;SDS011;11096;51.338;12.524;2023-08-08T04:53:23;3.38;;;2.10;;
21862;SDS011;11096;51.338;12.524;2023-08-08T04:55:48;4.40;;;2.08;;
21862;SDS011;11096;51.338;12.524;2023-08-08T04:58:14;5.43;;;2.20;;
21862;SDS011;11096;51.338;12.524;2023-08-08T05:00:39;5.97;;;2.10;;
21862;SDS011;11096;51.338;12.524;2023-08-08T05:03:04;3.72;;;1.80;;
21862;SDS011;11096;51.338;12.524;2023-08-08T05:05:30;5.72;;;2.03;;
21862;SDS011;11096;51.338;12.524;2023-08-08T05:07:55;6.18;;;2.05;;
21862;SDS011;11096;51.338;12.524;2023-08-08T05:10:20;7.72;;;1.80;;
21862;SDS011;11096;51.338;12.524;2023-08-08T05:12:46;4.68;;;2.05;;
21862;SDS011;11096;51.338;12.524;2023-08-08T05:15:11;5.57;;;2.10;;
21862;SDS011;11096;51.338;12.524;2023-08-08T05:17:37;4.68;;;2.10;;
21862;SDS011;11096;51.338;12.524;2023-08-08T05:20:02;5.50;;;2.15;;
21862;SDS011;11096;51.338;12.524;2023-08-08T05:22:28;4.47;;;2.10;;
21862;SDS011;11096;51.338;12.524;2023-08-08T05:24:54;6.95;;;2.58;;
21862;SDS011;11096;51.338;12.524;2023-08-08T05:27:19;5.95;;;1.67;;
21862;SDS011;11096;51.338;12.524;2023-08-08T05:29:45;5.53;;;2.00;;
21862;SDS011;11096;51.338;12.524;2023-08-08T05:32:10;4.95;;;2.05;;
21862;SDS011;11096;51.338;12.524;2023-08-08T05:34:35;4.78;;;1.90;;
21862;SDS011;11096;51.338;12.524;2023-08-08T05:37:01;3.53;;;2.00;;
21862;SDS011;11096;51.338;12.524;2023-08-08T05:39:26;7.63;;;2.22;;
21862;SDS011;11096;51.338;12.524;2023-08-08T05:41:52;7.55;;;2.30;;
21862;SDS011;11096;51.338;12.524;2023-08-08T05:44:17;5.85;;;2.15;;
21862;SDS011;11096;51.338;12.524;2023-08-08T05:46:43;9.10;;;2.17;;
21862;SDS011;11096;51.338;12.524;2023-08-08T05:49:08;2.50;;;1.80;;
21862;SDS011;11096;51.338;12.524;2023-08-08T05:51:34;3.55;;;1.88;;
21862;SDS011;11096;51.338;12.524;2023-08-08T05:53:59;3.65;;;1.90;;
21862;SDS011;11096;51.338;12.524;2023-08-08T05:56:25;3.67;;;1.85;;
21862;SDS011;11096;51.338;12.524;2023-08-08T05:58:52;3.83;;;1.83;;
21862;SDS011;11096;51.338;12.524;2023-08-08T06:01:18;5.72;;;2.10;;
21862;SDS011;11096;51.338;12.524;2023-08-08T06:03:43;4.57;;;1.85;;
21862;SDS011;11096;51.338;12.524;2023-08-08T06:06:08;3.78;;;1.80;;
21862;SDS011;11096;51.338;12.524;2023-08-08T06:08:34;4.38;;;2.03;;
21862;SDS011;11096;51.338;12.524;2023-08-08T06:10:59;9.52;;;1.80;;
21862;SDS011;11096;51.338;12.524;2023-08-08T06:13:25;3.92;;;1.70;;
21862;SDS011;11096;51.338;12.524;2023-08-08T06:15:50;4.05;;;1.52;;
21862;SDS011;11096;51.338;12.524;2023-08-08T06:18:16;3.35;;;1.77;;
21862;SDS011;11096;51.338;12.524;2023-08-08T06:20:42;2.95;;;1.90;;
21862;SDS011;11096;51.338;12.524;2023-08-08T06:23:07;3.95;;;1.50;;
21862;SDS011;11096;51.338;12.524;2023-08-08T06:25:33;4.30;;;1.50;;
21862;SDS011;11096;51.338;12.524;2023-08-08T06:27:58;2.60;;;1.70;;
21862;SDS011;11096;51.338;12.524;2023-08-08T06:30:23;3.60;;;1.50;;
21862;SDS011;11096;51.338;12.524;2023-08-08T06:32:49;3.67;;;1.50;;
21862;SDS011;11096;51.338;12.524;2023-08-08T06:35:14;3.67;;;1.60;;
21862;SDS011;11096;51.338;12.524;2023-08-08T06:37:41;3.65;;;1.40;;
21862;SDS011;11096;51.338;12.524;2023-08-08T06:40:08;4.20;;;1.67;;
21862;SDS011;11096;51.338;12.524;2023-08-08T06:42:34;3.00;;;1.70;;
21862;SDS011;11096;51.338;12.524;2023-08-08T06:44:59;4.07;;;1.65;;
21862;SDS011;11096;51.338;12.524;2023-08-08T06:47:25;3.33;;;1.60;;
21862;SDS011;11096;51.338;12.524;2023-08-08T06:49:50;2.72;;;1.60;;
21862;SDS011;11096;51.338;12.524;2023-08-08T06:52:15;1.70;;;1.30;;
21862;SDS011;11096;51.338;12.524;2023-08-08T06:54:41;2.22;;;1.40;;
21862;SDS011;11096;51.338;12.524;2023-08-08T06:57:06;4.57;;;2.20;;
21862;SDS011;11096;51.338;12.524;2023-08-08T06:59:32;2.42;;;1.50;;
21862;SDS011;11096;51.338;12.524;2023-08-08T07:01:57;1.45;;;1.33;;
21862;SDS011;11096;51.338;12.524;2023-08-08T07:04:23;7.57;;;1.90;;
21862;SDS011;11096;51.338;12.524;2023-08-08T07:06:48;3.70;;;1.42;;
21862;SDS011;11096;51.338;12.524;2023-08-08T07:09:13;3.95;;;1.70;;
21862;SDS011;11096;51.338;12.524;2023-08-08T07:11:39;2.30;;;1.50;;
21862;SDS011;11096;51.338;12.524;2023-08-08T07:14:05;4.13;;;1.67;;
21862;SDS011;11096;51.338;12.524;2023-08-08T07:16:31;2.90;;;1.80;;
21862;SDS011;11096;51.338;12.524;2023-08-08T07:18:56;2.45;;;1.50;;
21862;SDS011;11096;51.338;12.524;2023-08-08T07:21:22;3.42;;;1.40;;
21862;SDS011;11096;51.338;12.524;2023-08-08T07:23:47;3.85;;;1.60;;
21862;SDS011;11096;51.338;12.524;2023-08-08T07:26:13;5.68;;;1.30;;
21862;SDS011;11096;51.338;12.524;2023-08-08T07:28:38;5.05;;;1.60;;
21862;SDS011;11096;51.338;12.524;2023-08-08T07:31:04;2.40;;;1.35;;
21862;SDS011;11096;51.338;12.524;2023-08-08T07:33:29;3.33;;;1.30;;
21862;SDS011;11096;51.338;12.524;2023-08-08T07:35:55;4.93;;;1.75;;
21862;SDS011;11096;51.338;12.524;2023-08-08T07:38:20;4.13;;;1.23;;
21862;SDS011;11096;51.338;12.524;2023-08-08T07:40:46;1.52;;;1.00;;
21862;SDS011;11096;51.338;12.524;2023-08-08T07:43:13;3.25;;;1.30;;
21862;SDS011;11096;51.338;12.524;2023-08-08T07:45:38;2.70;;;1.33;;
21862;SDS011;11096;51.338;12.524;2023-08-08T07:48:04;3.08;;;1.60;;
21862;SDS011;11096;51.338;12.524;2023-08-08T07:50:30;3.00;;;1.35;;
21862;SDS011;11096;51.338;12.524;2023-08-08T07:52:55;2.78;;;1.38;;
21862;SDS011;11096;51.338;12.524;2023-08-08T07:55:21;3.17;;;1.40;;
21862;SDS011;11096;51.338;12.524;2023-08-08T07:57:46;3.55;;;1.65;;
21862;SDS011;11096;51.338;12.524;2023-08-08T08:00:12;2.03;;;1.50;;
21862;SDS011;11096;51.338;12.524;2023-08-08T08:02:42;4.03;;;1.38;;
21862;SDS011;11096;51.338;12.524;2023-08-08T08:05:08;2.05;;;1.58;;
21862;SDS011;11096;51.338;12.524;2023-08-08T08:07:34;3.55;;;1.83;;
21862;SDS011;11096;51.338;12.524;2023-08-08T08:10:05;5.07;;;1.80;;
21862;SDS011;11096;51.338;12.524;2023-08-08T08:12:33;2.75;;;1.55;;
21862;SDS011;11096;51.338;12.524;2023-08-08T08:15:00;2.50;;;1.45;;
21862;SDS011;11096;51.338;12.524;2023-08-08T08:17:26;1.92;;;1.33;;
21862;SDS011;11096;51.338;12.524;2023-08-08T08:19:53;3.72;;;1.90;;
21862;SDS011;11096;51.338;12.524;2023-08-08T08:22:18;4.65;;;2.00;;
21862;SDS011;11096;51.338;12.524;2023-08-08T08:24:44;3.35;;;1.75;;
21862;SDS011;11096;51.338;12.524;2023-08-08T08:27:09;4.47;;;1.70;;
21862;SDS011;11096;51.338;12.524;2023-08-08T08:29:34;3.13;;;1.90;;
21862;SDS011;11096;51.338;12.524;2023-08-08T08:32:00;2.97;;;1.45;;
21862;SDS011;11096;51.338;12.524;2023-08-08T08:34:25;4.43;;;1.48;;
21862;SDS011;11096;51.338;12.524;2023-08-08T08:36:51;1.95;;;1.50;;
21862;SDS011;11096;51.338;12.524;2023-08-08T08:39:16;4.72;;;2.05;;
21862;SDS011;11096;51.338;12.524;2023-08-08T08:41:41;3.80;;;1.60;;
21862;SDS011;11096;51.338;12.524;2023-08-08T08:44:13;3.85;;;1.88;;
21862;SDS011;11096;51.338;12.524;2023-08-08T08:46:41;5.90;;;1.67;;
21862;SDS011;11096;51.338;12.524;2023-08-08T08:49:07;7.10;;;1.85;;
21862;SDS011;11096;51.338;12.524;2023-08-08T08:51:33;4.28;;;1.73;;
21862;SDS011;11096;51.338;12.524;2023-08-08T08:54:00;4.90;;;2.03;;
21862;SDS011;11096;51.338;12.524;2023-08-08T08:56:26;3.35;;;1.65;;
21862;SDS011;11096;51.338;12.524;2023-08-08T08:58:52;3.67;;;1.63;;
21862;SDS011;11096;51.338;12.524;2023-08-08T09:01:17;2.55;;;1.85;;
21862;SDS011;11096;51.338;12.524;2023-08-08T09:03:44;3.10;;;1.58;;
21862;SDS011;11096;51.338;12.524;2023-08-08T09:06:10;4.05;;;1.70;;
21862;SDS011;11096;51.338;12.524;2023-08-08T09:08:36;1.80;;;1.30;;
21862;SDS011;11096;51.338;12.524;2023-08-08T09:11:02;2.20;;;1.70;;
21862;SDS011;11096;51.338;12.524;2023-08-08T09:13:32;7.18;;;2.22;;
21862;SDS011;11096;51.338;12.524;2023-08-08T09:16:01;2.92;;;1.70;;
21862;SDS011;11096;51.338;12.524;2023-08-08T09:18:26;2.47;;;1.58;;
21862;SDS011;11096;51.338;12.524;2023-08-08T09:20:51;5.32;;;2.20;;
21862;SDS011;11096;51.338;12.524;2023-08-08T09:23:17;4.30;;;1.90;;
21862;SDS011;11096;51.338;12.524;2023-08-08T09:25:42;2.05;;;1.52;;
21862;SDS011;11096;51.338;12.524;2023-08-08T09:28:08;2.78;;;1.92;;
21862;SDS011;11096;51.338;12.524;2023-08-08T09:30:34;2.35;;;1.73;;
21862;SDS011;11096;51.338;12.524;2023-08-08T09:33:00;3.80;;;1.52;;
21862;SDS011;11096;51.338;12.524;2023-08-08T09:35:26;3.25;;;1.75;;
21862;SDS011;11096;51.338;12.524;2023-08-08T09:37:54;3.35;;;1.77;;
21862;SDS011;11096;51.338;12.524;2023-08-08T09:40:20;5.07;;;1.65;;
21862;SDS011;11096;51.338;12.524;2023-08-08T09:42:46;5.65;;;1.95;;
21862;SDS011;11096;51.338;12.524;2023-08-08T09:45:13;4.07;;;1.90;;
21862;SDS011;11096;51.338;12.524;2023-08-08T09:47:39;7.35;;;2.10;;
21862;SDS011;11096;51.338;12.524;2023-08-08T09:50:05;2.67;;;1.60;;
21862;SDS011;11096;51.338;12.524;2023-08-08T09:52:31;2.85;;;1.45;;
21862;SDS011;11096;51.338;12.524;2023-08-08T09:54:59;2.22;;;1.40;;
21862;SDS011;11096;51.338;12.524;2023-08-08T09:57:25;3.95;;;1.80;;
21862;SDS011;11096;51.338;12.524;2023-08-08T09:59:52;2.38;;;1.60;;
21862;SDS011;11096;51.338;12.524;2023-08-08T10:02:17;5.75;;;1.63;;
21862;SDS011;11096;51.338;12.524;2023-08-08T10:04:46;3.85;;;1.90;;
21862;SDS011;11096;51.338;12.524;2023-08-08T10:07:12;4.75;;;1.80;;
21862;SDS011;11096;51.338;12.524;2023-08-08T10:09:38;6.10;;;1.58;;
21862;SDS011;11096;51.338;12.524;2023-08-08T10:12:05;5.35;;;1.52;;
21862;SDS011;11096;51.338;12.524;2023-08-08T10:14:32;4.70;;;1.60;;
21862;SDS011;11096;51.338;12.524;2023-08-08T10:17:04;3.83;;;1.35;;
21862;SDS011;11096;51.338;12.524;2023-08-08T10:19:31;6.13;;;1.42;;
21862;SDS011;11096;51.338;12.524;2023-08-08T10:21:58;4.93;;;1.45;;
21862;SDS011;11096;51.338;12.524;2023-08-08T10:24:32;4.88;;;1.88;;
21862;SDS011;11096;51.338;12.524;2023-08-08T10:26:59;3.90;;;1.27;;
21862;SDS011;11096;51.338;12.524;2023-08-08T10:29:28;3.22;;;1.35;;
21862;SDS011;11096;51.338;12.524;2023-08-08T10:32:05;5.97;;;1.23;;
21862;SDS011;11096;51.338;12.524;2023-08-08T10:34:41;2.63;;;1.55;;
21862;SDS011;11096;51.338;12.524;2023-08-08T10:37:12;4.57;;;1.38;;
21862;SDS011;11096;51.338;12.524;2023-08-08T10:39:50;2.50;;;1.38;;
21862;SDS011;11096;51.338;12.524;2023-08-08T10:42:19;6.80;;;1.92;;
21862;SDS011;11096;51.338;12.524;2023-08-08T10:44:52;5.45;;;1.50;;
21862;SDS011;11096;51.338;12.524;2023-08-08T10:47:36;3.88;;;1.60;;
21862;SDS011;11096;51.338;12.524;2023-08-08T10:52:33;3.92;;;1.58;;
21862;SDS011;11096;51.338;12.524;2023-08-08T10:55:02;4.15;;;1.77;;
21862;SDS011;11096;51.338;12.524;2023-08-08T10:57:28;3.22;;;1.30;;
21862;SDS011;11096;51.338;12.524;2023-08-08T10:59:55;2.03;;;1.40;;
21862;SDS011;11096;51.338;12.524;2023-08-08T11:02:40;2.30;;;1.05;;
21862;SDS011;11096;51.338;12.524;2023-08-08T11:05:06;2.47;;;1.40;;
21862;SDS011;11096;51.338;12.524;2023-08-08T11:07:32;3.40;;;1.30;;
21862;SDS011;11096;51.338;12.524;2023-08-08T11:10:00;6.53;;;1.65;;
21862;SDS011;11096;51.338;12.524;2023-08-08T11:12:26;2.60;;;1.23;;
21862;SDS011;11096;51.338;12.524;2023-08-08T11:14:51;2.67;;;1.40;;
21862;SDS011;11096;51.338;12.524;2023-08-08T11:17:17;2.28;;;1.27;;
21862;SDS011;11096;51.338;12.524;2023-08-08T11:19:43;2.95;;;1.27;;
21862;SDS011;11096;51.338;12.524;2023-08-08T11:22:09;2.10;;;1.30;;
21862;SDS011;11096;51.338;12.524;2023-08-08T11:24:38;2.65;;;1.30;;
21862;SDS011;11096;51.338;12.524;2023-08-08T11:27:04;2.78;;;1.23;;
21862;SDS011;11096;51.338;12.524;2023-08-08T11:29:29;5.55;;;1.52;;
21862;SDS011;11096;51.338;12.524;2023-08-08T11:32:04;3.55;;;1.30;;
21862;SDS011;11096;51.338;12.524;2023-08-08T11:34:34;1.88;;;1.02;;
21862;SDS011;11096;51.338;12.524;2023-08-08T11:37:00;4.40;;;1.20;;
21862;SDS011;11096;51.338;12.524;2023-08-08T11:39:26;2.58;;;1.30;;
21862;SDS011;11096;51.338;12.524;2023-08-08T11:41:52;5.53;;;1.10;;
21862;SDS011;11096;51.338;12.524;2023-08-08T11:44:18;5.05;;;1.13;;
21862;SDS011;11096;51.338;12.524;2023-08-08T11:46:45;2.80;;;1.15;;
21862;SDS011;11096;51.338;12.524;2023-08-08T11:49:13;2.50;;;1.20;;
21862;SDS011;11096;51.338;12.524;2023-08-08T11:51:39;3.70;;;1.10;;
21862;SDS011;11096;51.338;12.524;2023-08-08T11:54:05;3.03;;;1.30;;
21862;SDS011;11096;51.338;12.524;2023-08-08T11:56:33;3.78;;;1.20;;
21862;SDS011;11096;51.338;12.524;2023-08-08T11:58:59;2.28;;;1.20;;
21862;SDS011;11096;51.338;12.524;2023-08-08T12:01:25;2.58;;;1.00;;
21862;SDS011;11096;51.338;12.524;2023-08-08T12:03:52;1.50;;;0.90;;
21862;SDS011;11096;51.338;12.524;2023-08-08T12:06:19;3.08;;;0.80;;
21862;SDS011;11096;51.338;12.524;2023-08-08T12:08:45;3.25;;;1.10;;
21862;SDS011;11096;51.338;12.524;2023-08-08T12:11:12;2.30;;;0.90;;
21862;SDS011;11096;51.338;12.524;2023-08-08T12:13:42;2.33;;;1.20;;
21862;SDS011;11096;51.338;12.524;2023-08-08T12:16:09;2.65;;;1.08;;
21862;SDS011;11096;51.338;12.524;2023-08-08T12:18:36;1.95;;;1.40;;
21862;SDS011;11096;51.338;12.524;2023-08-08T12:21:03;4.88;;;1.33;;
21862;SDS011;11096;51.338;12.524;2023-08-08T12:23:30;5.28;;;1.15;;
21862;SDS011;11096;51.338;12.524;2023-08-08T12:25:56;6.22;;;1.33;;
21862;SDS011;11096;51.338;12.524;2023-08-08T12:28:22;3.70;;;1.38;;
21862;SDS011;11096;51.338;12.524;2023-08-08T12:30:48;4.07;;;1.17;;
21862;SDS011;11096;51.338;12.524;2023-08-08T12:33:13;2.90;;;1.23;;
21862;SDS011;11096;51.338;12.524;2023-08-08T12:35:38;5.25;;;2.00;;
21862;SDS011;11096;51.338;12.524;2023-08-08T12:38:04;3.50;;;1.23;;
21862;SDS011;11096;51.338;12.524;2023-08-08T12:40:29;5.25;;;1.42;;
21862;SDS011;11096;51.338;12.524;2023-08-08T12:42:55;8.15;;;1.63;;
21862;SDS011;11096;51.338;12.524;2023-08-08T12:45:20;2.03;;;1.25;;
21862;SDS011;11096;51.338;12.524;2023-08-08T12:47:47;3.30;;;1.02;;
21862;SDS011;11096;51.338;12.524;2023-08-08T12:50:12;1.77;;;0.90;;
21862;SDS011;11096;51.338;12.524;2023-08-08T12:52:39;1.63;;;1.10;;
21862;SDS011;11096;51.338;12.524;2023-08-08T12:55:05;2.83;;;1.10;;
21862;SDS011;11096;51.338;12.524;2023-08-08T12:57:32;2.42;;;1.10;;
21862;SDS011;11096;51.338;12.524;2023-08-08T12:59:57;1.33;;;0.88;;
21862;SDS011;11096;51.338;12.524;2023-08-08T13:02:23;3.78;;;1.15;;
21862;SDS011;11096;51.338;12.524;2023-08-08T13:04:48;1.75;;;0.85;;
21862;SDS011;11096;51.338;12.524;2023-08-08T13:07:14;3.22;;;0.90;;
21862;SDS011;11096;51.338;12.524;2023-08-08T13:09:39;2.10;;;0.82;;
21862;SDS011;11096;51.338;12.524;2023-08-08T13:12:05;1.83;;;1.00;;
21862;SDS011;11096;51.338;12.524;2023-08-08T13:14:31;2.65;;;1.00;;
21862;SDS011;11096;51.338;12.524;2023-08-08T13:16:56;1.17;;;0.60;;
21862;SDS011;11096;51.338;12.524;2023-08-08T13:19:22;2.88;;;1.00;;
21862;SDS011;11096;51.338;12.524;2023-08-08T13:21:50;3.00;;;1.00;;
21862;SDS011;11096;51.338;12.524;2023-08-08T13:24:16;3.92;;;1.13;;
21862;SDS011;11096;51.338;12.524;2023-08-08T13:26:42;4.47;;;1.30;;
21862;SDS011;11096;51.338;12.524;2023-08-08T13:29:07;3.25;;;1.33;;
21862;SDS011;11096;51.338;12.524;2023-08-08T13:31:33;2.17;;;1.10;;
21862;SDS011;11096;51.338;12.524;2023-08-08T13:33:59;2.55;;;1.20;;
21862;SDS011;11096;51.338;12.524;2023-08-08T13:36:24;5.22;;;1.55;;
21862;SDS011;11096;51.338;12.524;2023-08-08T13:38:50;3.28;;;1.23;;
21862;SDS011;11096;51.338;12.524;2023-08-08T13:41:15;6.20;;;1.33;;
21862;SDS011;11096;51.338;12.524;2023-08-08T13:43:41;3.08;;;1.27;;
21862;SDS011;11096;51.338;12.524;2023-08-08T13:46:06;3.13;;;1.40;;
21862;SDS011;11096;51.338;12.524;2023-08-08T13:48:34;5.10;;;1.60;;
21862;SDS011;11096;51.338;12.524;2023-08-08T13:51:00;8.45;;;2.22;;
21862;SDS011;11096;51.338;12.524;2023-08-08T13:53:26;7.75;;;2.92;;
21862;SDS011;11096;51.338;12.524;2023-08-08T13:55:51;8.30;;;1.90;;
21862;SDS011;11096;51.338;12.524;2023-08-08T13:58:17;6.78;;;2.03;;
21862;SDS011;11096;51.338;12.524;2023-08-08T14:00:42;5.75;;;2.70;;
21862;SDS011;11096;51.338;12.524;2023-08-08T14:03:08;7.10;;;2.35;;
21862;SDS011;11096;51.338;12.524;2023-08-08T14:05:33;5.22;;;2.15;;
21862;SDS011;11096;51.338;12.524;2023-08-08T14:07:59;5.00;;;2.50;;
21862;SDS011;11096;51.338;12.524;2023-08-08T14:10:24;4.18;;;2.25;;
21862;SDS011;11096;51.338;12.524;2023-08-08T14:12:50;8.40;;;2.80;;
21862;SDS011;11096;51.338;12.524;2023-08-08T14:15:15;6.93;;;2.17;;
21862;SDS011;11096;51.338;12.524;2023-08-08T14:17:40;3.65;;;1.88;;
21862;SDS011;11096;51.338;12.524;2023-08-08T14:20:06;8.52;;;2.13;;
21862;SDS011;11096;51.338;12.524;2023-08-08T14:22:33;5.13;;;1.90;;
21862;SDS011;11096;51.338;12.524;2023-08-08T14:24:59;3.70;;;1.92;;
21862;SDS011;11096;51.338;12.524;2023-08-08T14:27:25;2.75;;;1.90;;
21862;SDS011;11096;51.338;12.524;2023-08-08T14:29:50;11.25;;;3.70;;
21862;SDS011;11096;51.338;12.524;2023-08-08T14:32:15;4.07;;;3.17;;